Alfred, Maine
Current Conditions -  °F | °C
As of 1:35 PM on Wednesday 26 Nov 2014 (Local Time) from KSFM Reporting Station
Overcast Overcast  
Wind Chill: 22°   Ceiling: 400
Heat Index: 32°   Visibility: 0.75mi
Dew Point: 27°   Wind: 14mph
Humidity: 80%   Direction: 40°NE
Pressure: 30.1"   Gusts: 20mph
Location:  43.48°N, 70.72°W
Report Text: KSFM 261835Z AUTO 04012G17KT 3/4SM OVC004 00/M03 A3010 RMK AO1
Loading
Personal Weather Stations






























Interactive Weather Map New forecast layout! Learn more

10-Day Weather Forecast

Advertisements
Track Severe Weather on mobile